Time;durP1;ratioP1;P1;durP2;ratioP2;P2;SDS_P1;SDS_P2;PMS_P1;PMS_P2;Temp;Humidity;BMP_temperature;BMP_pressure;BME280_temperature;BME280_humidity;BME280_pressure;Samples;Min_cycle;Max_cycle;Signal;HPM_P1;HPM_P2
2023/07/30 00:00:40;;;;;;;;;;;;;;;22.86;28.59;97703.34;5003728;28;951;-81
2023/07/30 00:03:06;;;;;;;;;;;;;;;22.59;28.89;97698.25;5003184;28;835;-81
2023/07/30 00:05:31;;;;;;;;;;;;;;;22.76;28.70;97698.84;5004114;28;1248;-81
2023/07/30 00:07:57;;;;;;;;;;;;;;;22.79;28.61;97695.06;4986583;28;1037;-81
2023/07/30 00:10:22;;;;;;;;;;;;;;;22.46;29.00;97693.88;5003974;28;854;-81
2023/07/30 00:12:48;;;;;;;;;;;;;;;22.61;28.90;97692.09;5016901;28;975;-82
2023/07/30 00:15:13;;;;;;;;;;;;;;;22.62;28.58;97696.53;5043761;28;1060;-81
2023/07/30 00:17:39;;;;;;;;;;;;;;;22.88;28.61;97686.69;5046460;28;1905;-81
2023/07/30 00:20:06;;;;;;;;;;;;;;;22.51;28.79;97693.28;5061989;28;1110;-82
2023/07/30 00:22:32;;;;;;;;;;;;;;;22.83;28.45;97690.06;5063168;28;885;-82
2023/07/30 00:24:57;;;;;;;;;;;;;;;22.81;28.54;97686.91;5061375;28;1192;-81
2023/07/30 00:27:23;;;;;;;;;;;;;;;22.42;29.23;97693.19;5063085;28;1072;-81
2023/07/30 00:29:48;;;;;;;;;;;;;;;22.89;28.49;97687.47;5061657;28;864;-81
2023/07/30 00:32:16;;;;;;;;;;;;;;;22.95;28.17;97690.50;5046326;28;1233;-81
2023/07/30 00:34:42;;;;;;;;;;;;;;;22.68;28.74;97689.00;5061566;28;1050;-82
2023/07/30 00:37:08;;;;;;;;;;;;;;;22.69;28.40;97684.94;5063239;28;841;-81
2023/07/30 00:39:33;;;;;;;;;;;;;;;22.56;28.95;97684.19;5061814;28;1910;-81
2023/07/30 00:41:59;;;;;;;;;;;;;;;22.75;28.29;97677.44;5046652;28;1206;-81
2023/07/30 00:44:25;;;;;;;;;;;;;;;22.90;28.13;97676.91;5028413;28;989;-81
2023/07/30 00:46:51;;;;;;;;;;;;;;;22.91;28.10;97679.31;5062472;28;1139;-81
2023/07/30 00:49:18;;;;;;;;;;;;;;;22.95;28.22;97679.16;5061598;28;775;-81
2023/07/30 00:51:44;;;;;;;;;;;;;;;22.50;28.79;97683.19;5063307;28;1296;-81
2023/07/30 00:54:11;;;;;;;;;;;;;;;22.52;28.58;97677.84;5059384;28;1345;-81
2023/07/30 00:56:37;;;;;;;;;;;;;;;22.60;28.81;97679.19;5027646;28;1114;-81
2023/07/30 00:59:02;;;;;;;;;;;;;;;22.85;28.33;97681.91;5042515;28;1965;-82
2023/07/30 01:01:28;;;;;;;;;;;;;;;22.55;28.73;97679.78;5043561;28;1277;-82
2023/07/30 01:03:54;;;;;;;;;;;;;;;22.46;29.08;97682.53;5042899;28;747;-81
2023/07/30 01:06:21;;;;;;;;;;;;;;;22.59;28.61;97678.41;5043877;28;1100;-81
2023/07/30 01:08:47;;;;;;;;;;;;;;;22.83;28.45;97678.72;5026389;28;1139;-81
2023/07/30 01:11:13;;;;;;;;;;;;;;;22.62;28.73;97680.28;5044090;28;1118;-82
2023/07/30 01:13:38;;;;;;;;;;;;;;;22.72;28.44;97675.50;5042771;28;1256;-81
2023/07/30 01:16:04;;;;;;;;;;;;;;;22.70;28.57;97675.19;5027685;28;1252;-81
2023/07/30 01:18:30;;;;;;;;;;;;;;;22.77;28.38;97666.41;5041745;28;1910;-81
2023/07/30 01:20:59;;;;;;;;;;;;;;;22.47;28.89;97672.75;5044712;28;1199;-82
2023/07/30 01:23:25;;;;;;;;;;;;;;;22.42;29.07;97671.28;5041213;28;892;-81
2023/07/30 01:25:53;;;;;;;;;;;;;;;22.55;28.60;97662.75;5044323;28;1375;-81
2023/07/30 01:28:19;;;;;;;;;;;;;;;22.96;27.98;97673.03;5042232;28;1230;-81
2023/07/30 01:30:45;;;;;;;;;;;;;;;22.66;28.21;97677.34;5027555;28;1429;-81
2023/07/30 01:33:10;;;;;;;;;;;;;;;22.92;28.03;97669.53;5002246;28;1144;-82
2023/07/30 01:35:36;;;;;;;;;;;;;;;22.67;28.53;97678.91;4973719;28;1173;-81
2023/07/30 01:38:03;;;;;;;;;;;;;;;22.45;28.79;97675.28;4989400;28;1906;-81
2023/07/30 01:40:29;;;;;;;;;;;;;;;22.91;28.08;97675.69;4991526;28;899;-81
2023/07/30 01:42:54;;;;;;;;;;;;;;;22.68;28.19;97674.03;4932168;29;1250;-81
2023/07/30 01:45:20;;;;;;;;;;;;;;;22.92;28.25;97665.91;4932739;29;1146;-81
2023/07/30 01:47:46;;;;;;;;;;;;;;;22.63;28.53;97666.91;4948715;29;823;-82
2023/07/30 01:50:11;;;;;;;;;;;;;;;22.52;28.83;97669.34;4916169;29;1284;-80
2023/07/30 01:52:37;;;;;;;;;;;;;;;22.34;28.99;97670.78;4917074;29;1224;-81
2023/07/30 01:55:03;;;;;;;;;;;;;;;22.46;28.74;97671.19;4915963;29;1298;-82
2023/07/30 01:57:28;;;;;;;;;;;;;;;22.77;28.28;97668.44;4913998;29;1240;-81
2023/07/30 01:59:54;;;;;;;;;;;;;;;22.57;28.68;97671.59;4928048;29;1916;-82
2023/07/30 02:02:20;;;;;;;;;;;;;;;22.60;28.47;97670.69;4929517;29;1114;-81
2023/07/30 02:04:45;;;;;;;;;;;;;;;22.69;28.20;97673.59;4926633;29;1173;-81
2023/07/30 02:07:11;;;;;;;;;;;;;;;22.63;28.70;97669.75;4948948;29;1265;-82
2023/07/30 02:09:36;;;;;;;;;;;;;;;22.70;28.57;97663.84;4931124;29;1326;-81
2023/07/30 02:12:02;;;;;;;;;;;;;;;22.72;28.51;97667.00;4932703;29;789;-82
2023/07/30 02:14:28;;;;;;;;;;;;;;;22.75;28.49;97659.63;4931693;29;1307;-81
2023/07/30 02:16:59;;;;;;;;;;;;;;;22.64;28.66;97665.69;4932929;29;1168;-81
2023/07/30 02:19:24;;;;;;;;;;;;;;;22.50;28.46;97671.84;4932286;29;1895;-81
2023/07/30 02:21:50;;;;;;;;;;;;;;;22.55;28.75;97668.44;4951871;29;966;-81
2023/07/30 02:24:16;;;;;;;;;;;;;;;22.80;28.16;97664.69;4950598;29;823;-82
2023/07/30 02:26:41;;;;;;;;;;;;;;;22.31;29.05;97668.84;4951428;29;924;-81
2023/07/30 02:29:07;;;;;;;;;;;;;;;22.59;28.53;97661.38;5011683;28;1152;-81
2023/07/30 02:31:32;;;;;;;;;;;;;;;22.64;28.60;97660.00;5025829;28;1194;-82
2023/07/30 02:33:58;;;;;;;;;;;;;;;22.53;28.49;97665.25;5040798;28;1209;-82
2023/07/30 02:36:24;;;;;;;;;;;;;;;22.33;29.03;97672.03;5042848;28;1204;-82
2023/07/30 02:38:49;;;;;;;;;;;;;;;22.65;28.26;97672.94;5024283;28;1910;-81
2023/07/30 02:41:15;;;;;;;;;;;;;;;22.59;28.39;97674.78;5041868;28;942;-81
2023/07/30 02:43:40;;;;;;;;;;;;;;;22.48;28.89;97674.34;5008095;28;1167;-81
2023/07/30 02:46:06;;;;;;;;;;;;;;;22.59;28.56;97674.78;5042300;28;1265;-81
2023/07/30 02:48:32;;;;;;;;;;;;;;;22.48;28.63;97680.00;5024142;28;1159;-82
2023/07/30 02:50:58;;;;;;;;;;;;;;;22.88;27.98;97677.38;4977780;28;1198;-81
2023/07/30 02:53:24;;;;;;;;;;;;;;;22.56;28.48;97679.31;5023507;28;1334;-81
2023/07/30 02:55:49;;;;;;;;;;;;;;;22.67;28.46;97680.97;5011251;28;1376;-81
2023/07/30 02:58:15;;;;;;;;;;;;;;;22.81;28.16;97681.25;5009621;28;1887;-81
2023/07/30 03:00:40;;;;;;;;;;;;;;;22.76;28.32;97678.22;5028081;28;906;-81
2023/07/30 03:03:06;;;;;;;;;;;;;;;22.83;27.99;97678.72;5027203;28;1234;-81
2023/07/30 03:05:31;;;;;;;;;;;;;;;22.77;28.02;97680.56;5028202;28;1060;-81
2023/07/30 03:07:57;;;;;;;;;;;;;;;22.56;28.26;97687.03;5027672;28;1143;-81
2023/07/30 03:10:23;;;;;;;;;;;;;;;22.58;28.54;97678.84;5044669;28;877;-81
2023/07/30 03:12:49;;;;;;;;;;;;;;;22.50;28.42;97680.34;5027918;28;866;-81
2023/07/30 03:15:14;;;;;;;;;;;;;;;22.42;28.77;97679.00;5011454;28;816;-82
2023/07/30 03:17:40;;;;;;;;;;;;;;;22.49;28.66;97687.28;5027381;28;1957;-82
2023/07/30 03:20:06;;;;;;;;;;;;;;;22.47;28.78;97672.75;5010223;28;1056;-82
2023/07/30 03:22:32;;;;;;;;;;;;;;;22.42;28.75;97676.19;4984421;28;1241;-82
2023/07/30 03:24:57;;;;;;;;;;;;;;;22.57;28.52;97682.94;4967839;28;897;-82
2023/07/30 03:27:23;;;;;;;;;;;;;;;22.58;28.70;97687.34;4968763;28;1125;-82
2023/07/30 03:29:48;;;;;;;;;;;;;;;22.47;28.86;97684.88;4983441;28;753;-83
2023/07/30 03:32:14;;;;;;;;;;;;;;;22.68;28.44;97683.34;4969379;28;752;-83
2023/07/30 03:34:40;;;;;;;;;;;;;;;22.45;28.83;97693.06;4983664;28;864;-83
2023/07/30 03:37:05;;;;;;;;;;;;;;;22.64;28.74;97694.03;4985454;28;1446;-83
2023/07/30 03:39:31;;;;;;;;;;;;;;;22.59;28.48;97691.78;4984166;28;1883;-83
2023/07/30 03:41:56;;;;;;;;;;;;;;;22.77;28.30;97691.94;4970112;28;925;-83
2023/07/30 03:44:22;;;;;;;;;;;;;;;22.68;28.59;97689.00;4968687;28;1323;-83
2023/07/30 03:46:47;;;;;;;;;;;;;;;22.76;28.62;97695.22;4965402;29;1285;-83
2023/07/30 03:49:13;;;;;;;;;;;;;;;22.41;29.04;97691.59;4949130;29;1300;-83
2023/07/30 03:51:38;;;;;;;;;;;;;;;22.90;28.25;97699.59;4950301;29;1209;-83
2023/07/30 03:54:04;;;;;;;;;;;;;;;22.56;28.80;97692.69;4964858;29;990;-83
2023/07/30 03:56:30;;;;;;;;;;;;;;;22.68;28.77;97691.84;4973047;28;1127;-82
2023/07/30 03:58:55;;;;;;;;;;;;;;;22.36;29.25;97688.09;4968523;28;1954;-82
2023/07/30 04:01:21;;;;;;;;;;;;;;;22.76;28.45;97684.66;4971839;28;1191;-83
2023/07/30 04:03:47;;;;;;;;;;;;;;;22.64;28.89;97694.03;4970074;28;1132;-83
2023/07/30 04:06:12;;;;;;;;;;;;;;;22.73;28.78;97691.25;4987792;28;881;-83
2023/07/30 04:08:38;;;;;;;;;;;;;;;22.77;28.61;97686.25;4986452;28;835;-83
2023/07/30 04:11:03;;;;;;;;;;;;;;;22.65;28.98;97689.94;4988455;28;758;-82
2023/07/30 04:13:29;;;;;;;;;;;;;;;22.73;28.98;97690.47;5002774;28;932;-83
2023/07/30 04:15:54;;;;;;;;;;;;;;;22.83;28.83;97689.28;5007831;28;1235;-82
2023/07/30 04:18:20;;;;;;;;;;;;;;;22.49;29.18;97692.97;5017825;28;1906;-83
2023/07/30 04:20:46;;;;;;;;;;;;;;;22.75;29.03;97688.78;5030988;28;1154;-83
2023/07/30 04:23:12;;;;;;;;;;;;;;;22.62;28.99;97696.53;5029876;28;1171;-83
2023/07/30 04:25:37;;;;;;;;;;;;;;;22.45;29.46;97697.94;5047454;28;1194;-83
2023/07/30 04:28:03;;;;;;;;;;;;;;;22.85;28.69;97698.94;5046112;28;1149;-82
2023/07/30 04:30:29;;;;;;;;;;;;;;;22.70;28.83;97697.88;5030658;28;1329;-83
2023/07/30 04:32:54;;;;;;;;;;;;;;;22.59;29.14;97697.47;5046406;28;1064;-83
2023/07/30 04:35:20;;;;;;;;;;;;;;;22.66;29.11;97702.88;5047138;28;1087;-83
2023/07/30 04:37:46;;;;;;;;;;;;;;;22.73;29.18;97701.81;5046806;28;1906;-83
2023/07/30 04:40:12;;;;;;;;;;;;;;;22.76;28.75;97696.03;4985934;28;1297;-83
2023/07/30 04:42:37;;;;;;;;;;;;;;;22.70;28.93;97697.88;4987465;28;845;-83
2023/07/30 04:45:03;;;;;;;;;;;;;;;22.57;29.22;97712.06;4985239;28;834;-83
2023/07/30 04:47:32;;;;;;;;;;;;;;;22.63;28.99;97709.44;4987674;28;1116;-83
2023/07/30 04:49:58;;;;;;;;;;;;;;;22.47;29.41;97716.06;4953148;28;1457;-83
2023/07/30 04:52:23;;;;;;;;;;;;;;;22.76;29.04;97713.03;4987222;28;1173;-83
2023/07/30 04:54:49;;;;;;;;;;;;;;;22.53;29.30;97721.94;5001981;28;1058;-83
2023/07/30 04:57:14;;;;;;;;;;;;;;;22.61;29.23;97720.47;5004176;28;993;-83
2023/07/30 04:59:40;;;;;;;;;;;;;;;22.68;29.22;97713.75;5002304;28;1985;-83
2023/07/30 05:02:05;;;;;;;;;;;;;;;22.64;28.99;97716.72;4986862;28;745;-84
2023/07/30 05:04:31;;;;;;;;;;;;;;;22.66;29.14;97719.88;4985209;28;902;-83
2023/07/30 05:06:56;;;;;;;;;;;;;;;22.66;29.06;97722.72;4967715;28;1140;-83
2023/07/30 05:09:22;;;;;;;;;;;;;;;22.72;29.21;97722.91;4966561;28;838;-83
2023/07/30 05:11:48;;;;;;;;;;;;;;;22.81;28.97;97726.63;5032920;28;853;-83
2023/07/30 05:14:13;;;;;;;;;;;;;;;22.96;28.72;97731.84;5029434;28;803;-83
2023/07/30 05:16:39;;;;;;;;;;;;;;;22.76;28.97;97723.59;5013775;28;1412;-83
2023/07/30 05:19:04;;;;;;;;;;;;;;;22.90;28.78;97722.31;4996133;28;2055;-83
2023/07/30 05:21:30;;;;;;;;;;;;;;;22.40;29.41;97733.34;5030517;28;882;-83
2023/07/30 05:23:56;;;;;;;;;;;;;;;22.80;29.00;97736.41;5012751;28;1218;-83
2023/07/30 05:26:21;;;;;;;;;;;;;;;22.84;28.91;97736.25;5045848;28;933;-83
2023/07/30 05:28:47;;;;;;;;;;;;;;;22.99;28.79;97736.56;5028743;28;862;-83
2023/07/30 05:31:12;;;;;;;;;;;;;;;22.64;29.21;97739.41;5029972;28;1277;-83
2023/07/30 05:33:38;;;;;;;;;;;;;;;22.73;29.15;97736.63;5044408;28;941;-83
2023/07/30 05:36:04;;;;;;;;;;;;;;;22.41;29.55;97745.47;5007185;28;1024;-83
2023/07/30 05:38:29;;;;;;;;;;;;;;;22.66;29.23;97734.06;5005202;28;1910;-83
2023/07/30 05:40:55;;;;;;;;;;;;;;;22.77;29.27;97742.97;4974813;28;1077;-82
2023/07/30 05:43:20;;;;;;;;;;;;;;;22.54;29.29;97746.25;4989211;28;842;-83
2023/07/30 05:45:46;;;;;;;;;;;;;;;22.86;29.07;97745.91;5006897;28;882;-83
2023/07/30 05:48:11;;;;;;;;;;;;;;;22.75;29.31;97741.88;4957597;28;1229;-83
2023/07/30 05:50:37;;;;;;;;;;;;;;;22.93;28.82;97744.09;5006492;28;1207;-83
2023/07/30 05:53:03;;;;;;;;;;;;;;;23.03;28.91;97738.03;4989355;28;1223;-83
2023/07/30 05:55:28;;;;;;;;;;;;;;;23.05;28.81;97751.75;4986239;28;1122;-83
2023/07/30 05:57:55;;;;;;;;;;;;;;;22.87;29.02;97746.69;4969843;28;1910;-83
2023/07/30 06:00:20;;;;;;;;;;;;;;;22.99;28.79;97750.75;4969804;28;880;-83
2023/07/30 06:02:46;;;;;;;;;;;;;;;22.94;28.96;97745.66;4985779;28;1194;-83
2023/07/30 06:05:11;;;;;;;;;;;;;;;22.79;28.96;97740.47;4947028;29;939;-83
2023/07/30 06:07:37;;;;;;;;;;;;;;;22.93;28.98;97744.88;4961808;29;1006;-83
2023/07/30 06:10:03;;;;;;;;;;;;;;;22.81;28.89;97743.66;4966465;29;1003;-83
2023/07/30 06:12:28;;;;;;;;;;;;;;;22.87;29.28;97747.47;4928953;29;1308;-83
2023/07/30 06:14:54;;;;;;;;;;;;;;;22.91;28.99;97749.44;4927572;29;1027;-83
2023/07/30 06:17:19;;;;;;;;;;;;;;;22.81;28.96;97746.50;4928798;29;1268;-83
2023/07/30 06:19:45;;;;;;;;;;;;;;;22.68;29.39;97739.25;4927110;29;1919;-83
2023/07/30 06:22:10;;;;;;;;;;;;;;;22.96;28.68;97754.53;4928392;29;1130;-83
2023/07/30 06:24:36;;;;;;;;;;;;;;;22.81;29.46;97749.31;4926913;29;1221;-83
2023/07/30 06:27:02;;;;;;;;;;;;;;;22.86;29.27;97756.47;4957052;29;799;-83
2023/07/30 06:29:27;;;;;;;;;;;;;;;22.73;29.29;97735.84;4965258;29;789;-83
2023/07/30 06:31:53;;;;;;;;;;;;;;;23.01;28.78;97742.59;4966734;29;884;-83
2023/07/30 06:34:18;;;;;;;;;;;;;;;23.01;29.05;97745.44;4965403;28;1226;-83
2023/07/30 06:36:44;;;;;;;;;;;;;;;22.75;29.61;97742.66;4966688;29;1206;-83
2023/07/30 06:39:09;;;;;;;;;;;;;;;23.10;29.05;97751.16;4965398;29;1919;-83
2023/07/30 06:41:35;;;;;;;;;;;;;;;22.73;29.53;97747.97;4967060;29;1132;-83
2023/07/30 06:44:01;;;;;;;;;;;;;;;22.90;29.40;97740.13;4965831;29;1183;-83
2023/07/30 06:46:27;;;;;;;;;;;;;;;23.01;29.03;97751.09;4966628;29;1139;-83
2023/07/30 06:48:52;;;;;;;;;;;;;;;22.58;29.86;97744.06;4969197;28;1320;-83
2023/07/30 06:51:21;;;;;;;;;;;;;;;22.97;29.15;97733.41;5005302;28;1292;-83
2023/07/30 06:53:47;;;;;;;;;;;;;;;22.60;29.52;97750.09;4987674;28;1286;-81
2023/07/30 06:56:12;;;;;;;;;;;;;;;22.74;29.72;97738.25;5005073;28;919;-83
2023/07/30 06:58:38;;;;;;;;;;;;;;;22.85;29.31;97732.97;5008322;28;1973;-83
2023/07/30 07:01:03;;;;;;;;;;;;;;;22.94;29.08;97740.00;5030897;28;1394;-83
2023/07/30 07:03:29;;;;;;;;;;;;;;;23.02;29.32;97735.66;5043806;28;1120;-84
2023/07/30 07:05:55;;;;;;;;;;;;;;;22.98;29.36;97732.16;5028523;28;1312;-83
2023/07/30 07:08:21;;;;;;;;;;;;;;;22.96;29.10;97731.84;5042919;28;1214;-83
2023/07/30 07:10:46;;;;;;;;;;;;;;;23.08;29.17;97734.59;5044805;28;904;-83
2023/07/30 07:13:15;;;;;;;;;;;;;;;22.98;29.30;97729.31;5043199;28;822;-83
2023/07/30 07:15:43;;;;;;;;;;;;;;;23.11;29.08;97732.91;5027984;28;1135;-82
2023/07/30 07:18:09;;;;;;;;;;;;;;;23.09;29.12;97727.66;5043562;28;1899;-83
2023/07/30 07:20:34;;;;;;;;;;;;;;;23.01;29.22;97734.88;5027215;28;899;-83
2023/07/30 07:23:00;;;;;;;;;;;;;;;23.08;29.20;97726.06;5042647;28;916;-83
2023/07/30 07:25:25;;;;;;;;;;;;;;;22.92;29.48;97731.16;5044493;28;897;-83
2023/07/30 07:27:51;;;;;;;;;;;;;;;22.98;29.38;97740.66;5027235;28;1120;-83
2023/07/30 07:30:16;;;;;;;;;;;;;;;23.06;29.07;97736.31;5043003;28;1032;-83
2023/07/30 07:32:42;;;;;;;;;;;;;;;22.87;29.54;97736.13;5042335;28;904;-83
2023/07/30 07:35:08;;;;;;;;;;;;;;;22.74;29.71;97729.72;5006356;28;893;-83
2023/07/30 07:37:33;;;;;;;;;;;;;;;22.98;29.51;97729.31;4992256;28;913;-82
2023/07/30 07:39:59;;;;;;;;;;;;;;;22.64;29.90;97730.91;5003637;28;1914;-83
2023/07/30 07:42:24;;;;;;;;;;;;;;;22.77;29.63;97731.63;4988629;28;755;-83
2023/07/30 07:44:50;;;;;;;;;;;;;;;23.06;29.28;97724.97;4986681;28;1121;-83
2023/07/30 07:47:15;;;;;;;;;;;;;;;22.97;29.43;97722.06;4987955;28;1110;-83
2023/07/30 07:49:41;;;;;;;;;;;;;;;22.96;29.51;97720.47;5003554;28;759;-83
2023/07/30 07:52:07;;;;;;;;;;;;;;;22.85;29.84;97721.63;4987411;28;948;-83
2023/07/30 07:54:32;;;;;;;;;;;;;;;22.91;29.87;97718.22;4986537;28;1252;-82
2023/07/30 07:56:58;;;;;;;;;;;;;;;22.95;29.61;97708.34;5003137;28;829;-83
2023/07/30 07:59:24;;;;;;;;;;;;;;;22.91;29.89;97712.56;4986469;28;1883;-83
2023/07/30 08:01:49;;;;;;;;;;;;;;;22.98;29.54;97720.81;5003812;28;1113;-82
2023/07/30 08:04:15;;;;;;;;;;;;;;;22.87;29.60;97719.13;4986263;28;846;-83
2023/07/30 08:06:40;;;;;;;;;;;;;;;22.44;30.49;97714.16;4984090;28;902;-83
2023/07/30 08:09:06;;;;;;;;;;;;;;;22.83;30.00;97712.78;4966907;28;977;-83
2023/07/30 08:11:31;;;;;;;;;;;;;;;22.85;30.06;97721.63;4970866;28;904;-83
2023/07/30 08:13:57;;;;;;;;;;;;;;;23.11;29.57;97715.88;5022225;28;834;-83
2023/07/30 08:16:23;;;;;;;;;;;;;;;23.22;29.12;97721.94;4964123;29;979;-83
2023/07/30 08:18:48;;;;;;;;;;;;;;;23.05;29.40;97724.19;4946554;29;1887;-82
2023/07/30 08:21:17;;;;;;;;;;;;;;;22.69;30.21;97716.13;4948610;29;909;-82
2023/07/30 08:24:00;;;;;;;;;;;;;;;22.80;30.11;97713.72;5102183;27;1855;-82
2023/07/30 08:26:26;;;;;;;;;;;;;;;23.09;29.29;97718.34;5119096;28;1045;-83
2023/07/30 08:28:51;;;;;;;;;;;;;;;23.08;29.50;97717.56;5101155;28;1257;-83
2023/07/30 08:31:17;;;;;;;;;;;;;;;23.01;29.76;97711.38;5102537;28;817;-83
2023/07/30 08:33:42;;;;;;;;;;;;;;;22.70;30.18;97714.88;5101488;28;829;-82
2023/07/30 08:36:08;;;;;;;;;;;;;;;22.76;29.92;97710.19;5101926;28;1102;-82
2023/07/30 08:38:34;;;;;;;;;;;;;;;22.92;29.77;97717.75;5116459;28;853;-82
2023/07/30 08:40:59;;;;;;;;;;;;;;;23.07;29.74;97720.88;5135824;28;821;-83
2023/07/30 08:43:25;;;;;;;;;;;;;;;22.60;30.44;97716.06;5132227;28;1905;-82
2023/07/30 08:45:50;;;;;;;;;;;;;;;22.99;29.52;97716.69;5134804;27;766;-83
2023/07/30 08:48:16;;;;;;;;;;;;;;;22.66;30.41;97714.22;5133501;28;889;-82
2023/07/30 08:50:42;;;;;;;;;;;;;;;22.80;30.13;97719.38;5134422;28;857;-83
2023/07/30 08:53:07;;;;;;;;;;;;;;;22.91;29.64;97712.56;5116266;28;1211;-83
2023/07/30 08:55:33;;;;;;;;;;;;;;;22.97;29.87;97711.50;5100269;28;710;-83
2023/07/30 08:57:59;;;;;;;;;;;;;;;23.09;29.68;97713.47;5100465;28;825;-83
2023/07/30 09:00:25;;;;;;;;;;;;;;;23.00;29.87;97706.94;5116637;28;1052;-83
2023/07/30 09:02:52;;;;;;;;;;;;;;;22.98;29.80;97713.06;5099356;28;1910;-83
2023/07/30 09:05:18;;;;;;;;;;;;;;;23.01;29.66;97702.88;5116125;28;877;-83
2023/07/30 09:07:44;;;;;;;;;;;;;;;22.83;29.94;97694.97;5115665;28;1132;-82
2023/07/30 09:10:10;;;;;;;;;;;;;;;22.73;30.17;97696.94;5115609;28;857;-82
2023/07/30 09:12:35;;;;;;;;;;;;;;;22.76;30.19;97690.34;5098999;28;1258;-83
2023/07/30 09:15:05;;;;;;;;;;;;;;;22.71;30.16;97692.97;5097792;28;1152;-82
2023/07/30 09:17:30;;;;;;;;;;;;;;;22.84;29.88;97690.88;5099096;28;844;-82
2023/07/30 09:19:58;;;;;;;;;;;;;;;22.91;29.77;97690.66;5131254;28;918;-82
2023/07/30 09:22:25;;;;;;;;;;;;;;;23.02;29.72;97690.25;5115403;28;1984;-82
2023/07/30 09:24:50;;;;;;;;;;;;;;;23.05;29.70;97686.47;5131383;28;845;-83
2023/07/30 09:27:22;;;;;;;;;;;;;;;23.01;29.53;97683.78;5115314;28;1296;-82
2023/07/30 09:29:55;;;;;;;;;;;;;;;23.10;29.44;97688.72;5131174;28;742;-83
2023/07/30 09:32:26;;;;;;;;;;;;;;;23.05;29.48;97690.13;5115878;28;1224;-83
2023/07/30 09:34:51;;;;;;;;;;;;;;;22.83;29.94;97687.25;5120293;28;729;-82
2023/07/30 09:37:17;;;;;;;;;;;;;;;23.12;29.37;97689.06;5085352;28;801;-83
2023/07/30 09:39:42;;;;;;;;;;;;;;;22.97;29.80;97685.16;5084236;28;1170;-83
2023/07/30 09:42:08;;;;;;;;;;;;;;;22.85;30.20;97693.25;5101665;28;1976;-82
2023/07/30 09:44:33;;;;;;;;;;;;;;;22.95;29.88;97684.81;5085170;28;759;-82
2023/07/30 09:47:04;;;;;;;;;;;;;;;23.09;29.50;97685.09;5086068;28;806;-82
2023/07/30 09:49:30;;;;;;;;;;;;;;;23.12;29.42;97694.75;5100633;28;751;-83
2023/07/30 09:51:55;;;;;;;;;;;;;;;23.22;29.21;97687.88;5086033;28;818;-82
2023/07/30 09:54:22;;;;;;;;;;;;;;;23.06;29.55;97688.09;5100398;28;1210;-83
2023/07/30 09:56:47;;;;;;;;;;;;;;;22.97;29.66;97682.34;5119425;28;752;-82
2023/07/30 09:59:13;;;;;;;;;;;;;;;22.98;29.67;97684.69;5100763;28;774;-83
2023/07/30 10:01:49;;;;;;;;;;;;;;;23.13;29.34;97682.13;5101482;28;1972;-83
2023/07/30 10:04:14;;;;;;;;;;;;;;;22.72;29.99;97684.00;5122845;28;938;-83
2023/07/30 10:06:45;;;;;;;;;;;;;;;22.76;30.18;97690.34;5073625;28;859;-83
2023/07/30 10:09:10;;;;;;;;;;;;;;;23.11;29.65;97676.91;5105769;28;915;-82
2023/07/30 10:11:36;;;;;;;;;;;;;;;22.89;29.93;97687.47;5107889;28;829;-83
2023/07/30 10:14:02;;;;;;;;;;;;;;;22.98;29.81;97678.25;5083131;28;940;-83
2023/07/30 10:16:28;;;;;;;;;;;;;;;22.92;29.69;97674.41;5074374;28;906;-83
2023/07/30 10:18:57;;;;;;;;;;;;;;;23.06;29.46;97676.72;5046327;28;881;-83
2023/07/30 10:21:23;;;;;;;;;;;;;;;23.00;29.74;97672.88;5048245;28;1323;-83
2023/07/30 10:24:09;;;;;;;;;;;;;;;23.05;29.71;97673.09;5063300;28;1901;-83
2023/07/30 10:26:36;;;;;;;;;;;;;;;22.94;29.76;97669.06;5063933;28;735;-83
2023/07/30 10:29:11;;;;;;;;;;;;;;;22.74;30.10;97664.50;5046008;28;1242;-82
2023/07/30 10:31:41;;;;;;;;;;;;;;;23.06;29.60;97663.34;5063895;28;762;-83
2023/07/30 10:34:06;;;;;;;;;;;;;;;23.08;29.44;97668.53;5044466;28;793;-83
2023/07/30 10:36:33;;;;;;;;;;;;;;;23.13;29.52;97673.59;5060423;28;811;-83
2023/07/30 10:39:10;;;;;;;;;;;;;;;23.15;29.22;97671.09;5059001;28;833;-82
2023/07/30 10:41:36;;;;;;;;;;;;;;;22.87;29.88;97668.03;5060285;28;1902;-83
2023/07/30 10:44:02;;;;;;;;;;;;;;;22.89;29.57;97664.78;5058955;28;885;-82
2023/07/30 10:46:28;;;;;;;;;;;;;;;23.18;29.08;97670.19;5061642;28;1017;-83
2023/07/30 10:48:53;;;;;;;;;;;;;;;22.91;29.58;97664.31;5061438;28;915;-82
2023/07/30 10:51:20;;;;;;;;;;;;;;;23.14;29.27;97663.84;5081169;28;987;-83
2023/07/30 10:53:46;;;;;;;;;;;;;;;23.18;29.34;97664.50;5084437;28;951;-83
2023/07/30 10:56:12;;;;;;;;;;;;;;;23.09;29.55;97667.28;5086425;28;808;-82
2023/07/30 10:58:37;;;;;;;;;;;;;;;23.14;29.51;97658.16;5084477;28;782;-82
2023/07/30 11:01:03;;;;;;;;;;;;;;;22.87;29.71;97656.69;5085192;28;805;-82
2023/07/30 11:03:29;;;;;;;;;;;;;;;22.92;29.93;97652.50;5100482;28;1906;-82
2023/07/30 11:05:55;;;;;;;;;;;;;;;23.07;29.71;97653.56;5085217;28;865;-82
2023/07/30 11:08:36;;;;;;;;;;;;;;;23.04;29.84;97657.31;5083992;28;860;-82
2023/07/30 11:11:02;;;;;;;;;;;;;;;22.97;29.82;97659.63;5085708;28;767;-83
2023/07/30 11:13:28;;;;;;;;;;;;;;;22.85;29.84;97653.53;5079866;28;1128;-82
2023/07/30 11:15:53;;;;;;;;;;;;;;;22.98;29.62;97662.00;5065762;28;1185;-83
2023/07/30 11:18:19;;;;;;;;;;;;;;;23.15;29.56;97659.75;5046704;28;1192;-82
2023/07/30 11:20:44;;;;;;;;;;;;;;;22.83;30.15;97649.56;5062075;28;822;-82
2023/07/30 11:23:20;;;;;;;;;;;;;;;22.95;29.62;97657.28;5060051;28;1902;-82
2023/07/30 11:25:46;;;;;;;;;;;;;;;23.21;29.36;97649.38;5064772;28;1094;-82
2023/07/30 11:28:12;;;;;;;;;;;;;;;22.77;30.25;97646.53;5063513;28;1201;-82
2023/07/30 11:30:38;;;;;;;;;;;;;;;23.16;29.30;97650.00;5081707;28;1086;-82
2023/07/30 11:33:03;;;;;;;;;;;;;;;23.03;29.69;97646.44;5080362;28;938;-83
2023/07/30 11:35:29;;;;;;;;;;;;;;;23.06;29.73;97642.69;5080765;28;939;-82
2023/07/30 11:37:55;;;;;;;;;;;;;;;23.05;29.53;97633.38;5097544;28;845;-82
2023/07/30 11:40:20;;;;;;;;;;;;;;;22.71;30.12;97637.03;5064121;28;794;-82
2023/07/30 11:42:46;;;;;;;;;;;;;;;23.12;29.43;97643.66;5080737;28;1909;-81
2023/07/30 11:45:19;;;;;;;;;;;;;;;23.12;29.49;97647.28;5043450;28;1332;-82
2023/07/30 11:47:44;;;;;;;;;;;;;;;22.78;29.96;97641.66;5039916;28;1015;-83
2023/07/30 11:50:10;;;;;;;;;;;;;;;22.89;29.84;97636.41;5039921;28;1199;-83
2023/07/30 11:52:36;;;;;;;;;;;;;;;22.97;29.83;97632.06;5057139;28;837;-82
2023/07/30 11:55:04;;;;;;;;;;;;;;;23.02;29.51;97636.34;5039788;28;927;-82
2023/07/30 11:57:33;;;;;;;;;;;;;;;23.00;29.76;97630.31;5041056;28;943;-82
2023/07/30 11:59:59;;;;;;;;;;;;;;;22.91;29.73;97633.91;5037830;28;885;-83
2023/07/30 12:02:24;;;;;;;;;;;;;;;22.97;29.91;97625.59;5038114;28;1918;-82
2023/07/30 12:04:50;;;;;;;;;;;;;;;22.88;29.99;97618.59;5020862;28;799;-83
2023/07/30 12:07:22;;;;;;;;;;;;;;;23.04;29.71;97619.63;5020894;28;883;-82
2023/07/30 12:09:48;;;;;;;;;;;;;;;22.90;29.98;97614.50;5020070;28;928;-82
2023/07/30 12:12:13;;;;;;;;;;;;;;;23.13;29.55;97611.19;5021569;28;825;-83
2023/07/30 12:14:57;;;;;;;;;;;;;;;23.27;29.38;97616.31;5036833;28;1288;-82
2023/07/30 12:17:22;;;;;;;;;;;;;;;23.05;29.70;97615.53;5062762;28;845;-82
2023/07/30 12:19:48;;;;;;;;;;;;;;;22.74;30.38;97616.28;5095752;28;948;-83
2023/07/30 12:22:13;;;;;;;;;;;;;;;22.90;29.76;97608.81;5063395;28;1952;-83
2023/07/30 12:24:40;;;;;;;;;;;;;;;23.23;29.30;97604.28;5066421;28;1200;-83
2023/07/30 12:27:06;;;;;;;;;;;;;;;22.93;29.66;97602.22;5081957;28;711;-82
2023/07/30 12:29:31;;;;;;;;;;;;;;;23.21;29.44;97601.13;5083321;28;831;-83
2023/07/30 12:31:57;;;;;;;;;;;;;;;23.15;29.64;97597.31;5084455;28;800;-82
2023/07/30 12:34:23;;;;;;;;;;;;;;;23.13;29.36;97600.59;5082526;28;840;-82
2023/07/30 12:36:48;;;;;;;;;;;;;;;22.86;29.83;97598.38;5066744;28;1138;-83
2023/07/30 12:39:14;;;;;;;;;;;;;;;22.90;29.80;97586.13;5082521;28;893;-82
2023/07/30 12:41:39;;;;;;;;;;;;;;;22.83;29.92;97587.16;5064931;28;1914;-83
2023/07/30 12:44:05;;;;;;;;;;;;;;;23.08;29.37;97581.34;5082188;28;1116;-82
2023/07/30 12:46:32;;;;;;;;;;;;;;;23.10;29.51;97578.03;5065783;28;1131;-83
2023/07/30 12:49:02;;;;;;;;;;;;;;;23.05;29.68;97578.63;5080872;28;861;-82
2023/07/30 12:51:27;;;;;;;;;;;;;;;23.06;29.63;97581.03;5066083;28;949;-82
2023/07/30 12:53:53;;;;;;;;;;;;;;;23.10;29.46;97583.72;5081094;28;735;-82
2023/07/30 12:56:18;;;;;;;;;;;;;;;22.91;29.80;97570.72;5083148;28;892;-82